Emerald Leader — C6WP4 — position and weather

sailwx.info

Track history (hours):
 
Tides and Currents Weather Stations Pressure Air Temp Water Temp Dewpoint Dewpoint Depression Visibility Wind Speed Wind Dir Waves Ship Positions

Emerald Leader

Last reported at 2015-Jun-30 09:11 UTC. Time now 2015-Jun-30 09:56 UTC.
Position N 41°06' E 001°12'.

Length 176 m; draft 8.7 m.

Type: Cargo ship. MMSI: 308688000.

Date/timePositionNaut miles runAvg speedWind from/ knotsBaromVisibWave heightAir tempDewpointWater temp
2015-Jun-30 09:11N 41°06' E 001°12'0 0.0
2015-Jun-30 04:23N 41°06' E 001°12'1 0.7
2015-Jun-30 03:32N 41°05' E 001°13'4 4.6
2015-Jun-30 02:33N 41°01' E 001°12'1514.8
2015-Jun-30 01:33N 40°46' E 001°10'1414.2
2015-Jun-30 00:33N 40°32' E 001°06'0 0.4
2015-Jun-29 23:33N 40°32' E 001°06'8 8.3
2015-Jun-29 22:33N 40°25' E 000°59'1515.2
2015-Jun-29 21:33N 40°15' E 000°45'1515.0
2015-Jun-29 20:33N 40°05' E 000°30'1615.0
2015-Jun-29 19:30N 39°54' E 000°16'1414.6
2015-Jun-29 18:33N 39°44' E 000°02'1312.9
2015-Jun-29 17:32N 39°38' W 000°12'1 0.1
2015-Jun-29 09:33N 39°38' W 000°13'4213.3
2015-Jun-29 06:22N 39°02' E 000°14'1315.3
2015-Jun-29 05:33N 38°51' E 000°22'1413.5
2015-Jun-29 04:33N 38°37' E 000°24'1514.8
2015-Jun-29 03:33N 38°25' E 000°14'1515.0
2015-Jun-29 02:33N 38°13' E 000°03'1515.1
2015-Jun-29 01:33N 38°00' W 000°08'1515.2
2015-Jun-29 00:33N 37°48' W 000°18'1515.3
2015-Jun-28 23:34N 37°35' W 000°29'1515.0
2015-Jun-28 22:33N 37°25' W 000°43'1715.1
2015-Jun-28 21:27N 37°13' W 000°58'2915.2
2015-Jun-28 19:33N 36°54' W 001°25'1715.4
2015-Jun-28 18:27N 36°43' W 001°41'1415.0
2015-Jun-28 17:31N 36°33' W 001°53'1515.1
2015-Jun-28 16:33N 36°24' W 002°07'1514.9
2015-Jun-28 15:33N 36°20' W 002°25'1515.4
2015-Jun-28 14:33N 36°17' W 002°44'11815.7
2015-Jun-28 07:04N 36°01' W 005°08'917.1
2015-Jun-28 06:34N 35°60' W 005°19'17714.7
2015-Jun-27 18:33N 36°29' W 008°55'1515.2
2015-Jun-27 17:33N 36°33' W 009°13'1515.1
2015-Jun-27 16:34N 36°42' W 009°28'1514.6
2015-Jun-27 15:33N 36°56' W 009°35'1515.3
2015-Jun-27 14:33N 37°11' W 009°40'1515.5
2015-Jun-27 13:33N 37°26' W 009°44'1615.6
2015-Jun-27 12:34N 37°41' W 009°49'1615.6
2015-Jun-27 11:33N 37°56' W 009°53'1515.4
2015-Jun-27 10:34N 38°11' W 009°57'1616.5
2015-Jun-27 09:33N 38°27' W 010°02'1515.3
2015-Jun-27 08:34N 38°42' W 010°06'1515.0
2015-Jun-27 07:33N 38°57' W 010°06'1514.8
2015-Jun-27 06:33N 39°12' W 010°04'1515.0
2015-Jun-27 05:34N 39°26' W 009°59'1514.9
2015-Jun-27 04:34N 39°41' W 009°54'1515.2
2015-Jun-27 03:33N 39°55' W 009°49'1515.1
2015-Jun-27 02:33N 40°10' W 009°44'1515.0
2015-Jun-27 01:33N 40°25' W 009°39'1515.2
2015-Jun-27 00:33N 40°39' W 009°34'1515.1
2015-Jun-26 23:33N 40°54' W 009°29'1515.2
2015-Jun-26 22:33N 41°09' W 009°24'1915.4
2015-Jun-26 21:17N 41°28' W 009°18'1115.2
2015-Jun-26 20:33N 41°38' W 009°14'1615.3
2015-Jun-26 19:32N 41°53' W 009°09'1515.0
2015-Jun-26 18:33N 42°07' W 009°02'328 6.8
2015-Jun-24 18:20N 47°29' W 007°32'1215.0
2015-Jun-24 17:34N 47°40' W 007°26'1514.8
2015-Jun-24 16:33N 47°53' W 007°17'1515.2
2015-Jun-24 15:34N 48°07' W 007°08'1615.5
2015-Jun-24 14:33N 48°22' W 006°59'1615.6
2015-Jun-24 13:33N 48°36' W 006°50'3115.7
2015-Jun-24 11:33N 49°05' W 006°31'9114.6
2015-Jun-24 05:22N 50°30' W 005°45'1214.6
2015-Jun-24 04:33N 50°38' W 005°31'1514.9
2015-Jun-24 03:33N 50°48' W 005°13'8714.3
2015-Jun-23 21:27N 51°23' W 003°05'1214.0
2015-Jun-23 20:33N 51°29' W 002°48'3 3.2
2015-Jun-23 19:32N 51°30' W 002°43'0 0.0
2015-Jun-23 19:05N 51°30' W 002°43'0 0.0
2015-Jun-22 19:32N 51°30' W 002°43'0 0.0
2015-Jun-22 18:32N 51°30' W 002°43'0 0.0
2015-Jun-22 17:32N 51°30' W 002°43'0 0.0
2015-Jun-22 16:32N 51°30' W 002°43'0 0.0
2015-Jun-22 15:32N 51°30' W 002°43'0 0.0
2015-Jun-22 14:32N 51°30' W 002°43'0 0.0
2015-Jun-22 13:33N 51°30' W 002°43'0 0.0
2015-Jun-22 12:29N 51°30' W 002°43'0 0.0
2015-Jun-22 11:32N 51°30' W 002°43'0 0.4
2015-Jun-22 10:33N 51°30' W 002°43'2 2.2
2015-Jun-22 09:33N 51°30' W 002°47'111 8.5
2015-Jun-21 20:33N 50°45' W 005°29'2115.5
2015-Jun-21 19:13N 50°28' W 005°47'9410.5
2015-Jun-21 10:12N 49°58' W 003°27'913.4
2015-Jun-21 09:33N 49°58' W 003°14'12815.8
2015-Jun-21 01:27N 50°30' W 000°00'1213.6
2015-Jun-21 00:33N 50°33' E 000°18'1312.8
2015-Jun-20 23:33N 50°38' E 000°37'1313.5
2015-Jun-20 22:34N 50°45' E 000°55'1515.3
2015-Jun-20 21:34N 50°55' E 001°13'1716.7
2015-Jun-20 20:34N 51°07' E 001°32'1615.5
2015-Jun-20 19:34N 51°17' E 001°50'1212.1
2015-Jun-20 18:33N 51°23' E 002°08'1513.5
2015-Jun-20 17:27N 51°23' E 002°31'1213.3
2015-Jun-20 16:33N 51°22' E 002°51'1313.5
2015-Jun-20 15:34N 51°21' E 003°12'3 2.9
2015-Jun-20 14:31N 51°19' E 003°14'0 0.0
2015-Jun-20 13:31N 51°19' E 003°14'0 0.0
2015-Jun-20 12:31N 51°19' E 003°14'0 0.0
2015-Jun-20 11:31N 51°19' E 003°14'0 0.0
2015-Jun-20 10:31N 51°19' E 003°14'0 0.0
2015-Jun-20 09:31N 51°19' E 003°14'  
Track history (hours):
 
Tides and Currents Weather Stations Pressure Air Temp Water Temp Dewpoint Dewpoint Depression Visibility Wind Speed Wind Dir Waves Ship Positions

Emerald Leader

Last reported at 2015-Jun-30 09:11 UTC. Time now 2015-Jun-30 09:56 UTC.
Position N 41°06' E 001°12'.

Length 176 m; draft 8.7 m.

Type: Cargo ship. MMSI: 308688000.

Date/timePositionNaut miles runAvg speedWind from/ knotsBaromVisibWave heightAir tempDewpointWater temp
2015-Jun-30 09:11N 41°06' E 001°12'0 0.0
2015-Jun-30 04:23N 41°06' E 001°12'1 0.7
2015-Jun-30 03:32N 41°05' E 001°13'4 4.6
2015-Jun-30 02:33N 41°01' E 001°12'1514.8
2015-Jun-30 01:33N 40°46' E 001°10'1414.2
2015-Jun-30 00:33N 40°32' E 001°06'0 0.4
2015-Jun-29 23:33N 40°32' E 001°06'8 8.3
2015-Jun-29 22:33N 40°25' E 000°59'1515.2
2015-Jun-29 21:33N 40°15' E 000°45'1515.0
2015-Jun-29 20:33N 40°05' E 000°30'1615.0
2015-Jun-29 19:30N 39°54' E 000°16'1414.6
2015-Jun-29 18:33N 39°44' E 000°02'1312.9
2015-Jun-29 17:32N 39°38' W 000°12'1 0.1
2015-Jun-29 09:33N 39°38' W 000°13'4213.3
2015-Jun-29 06:22N 39°02' E 000°14'1315.3
2015-Jun-29 05:33N 38°51' E 000°22'1413.5
2015-Jun-29 04:33N 38°37' E 000°24'1514.8
2015-Jun-29 03:33N 38°25' E 000°14'1515.0
2015-Jun-29 02:33N 38°13' E 000°03'1515.1
2015-Jun-29 01:33N 38°00' W 000°08'1515.2
2015-Jun-29 00:33N 37°48' W 000°18'1515.3
2015-Jun-28 23:34N 37°35' W 000°29'1515.0
2015-Jun-28 22:33N 37°25' W 000°43'1715.1
2015-Jun-28 21:27N 37°13' W 000°58'2915.2
2015-Jun-28 19:33N 36°54' W 001°25'1715.4
2015-Jun-28 18:27N 36°43' W 001°41'1415.0
2015-Jun-28 17:31N 36°33' W 001°53'1515.1
2015-Jun-28 16:33N 36°24' W 002°07'1514.9
2015-Jun-28 15:33N 36°20' W 002°25'1515.4
2015-Jun-28 14:33N 36°17' W 002°44'11815.7
2015-Jun-28 07:04N 36°01' W 005°08'917.1
2015-Jun-28 06:34N 35°60' W 005°19'17714.7
2015-Jun-27 18:33N 36°29' W 008°55'1515.2
2015-Jun-27 17:33N 36°33' W 009°13'1515.1
2015-Jun-27 16:34N 36°42' W 009°28'1514.6
2015-Jun-27 15:33N 36°56' W 009°35'1515.3
2015-Jun-27 14:33N 37°11' W 009°40'1515.5
2015-Jun-27 13:33N 37°26' W 009°44'1615.6
2015-Jun-27 12:34N 37°41' W 009°49'1615.6
2015-Jun-27 11:33N 37°56' W 009°53'1515.4
2015-Jun-27 10:34N 38°11' W 009°57'1616.5
2015-Jun-27 09:33N 38°27' W 010°02'1515.3
2015-Jun-27 08:34N 38°42' W 010°06'1515.0
2015-Jun-27 07:33N 38°57' W 010°06'1514.8
2015-Jun-27 06:33N 39°12' W 010°04'1515.0
2015-Jun-27 05:34N 39°26' W 009°59'1514.9
2015-Jun-27 04:34N 39°41' W 009°54'1515.2
2015-Jun-27 03:33N 39°55' W 009°49'1515.1
2015-Jun-27 02:33N 40°10' W 009°44'1515.0
2015-Jun-27 01:33N 40°25' W 009°39'1515.2
2015-Jun-27 00:33N 40°39' W 009°34'1515.1
2015-Jun-26 23:33N 40°54' W 009°29'1515.2
2015-Jun-26 22:33N 41°09' W 009°24'1915.4
2015-Jun-26 21:17N 41°28' W 009°18'1115.2
2015-Jun-26 20:33N 41°38' W 009°14'1615.3
2015-Jun-26 19:32N 41°53' W 009°09'1515.0
2015-Jun-26 18:33N 42°07' W 009°02'328 6.8
2015-Jun-24 18:20N 47°29' W 007°32'1215.0
2015-Jun-24 17:34N 47°40' W 007°26'1514.8
2015-Jun-24 16:33N 47°53' W 007°17'1515.2
2015-Jun-24 15:34N 48°07' W 007°08'1615.5
2015-Jun-24 14:33N 48°22' W 006°59'1615.6
2015-Jun-24 13:33N 48°36' W 006°50'3115.7
2015-Jun-24 11:33N 49°05' W 006°31'9114.6
2015-Jun-24 05:22N 50°30' W 005°45'1214.6
2015-Jun-24 04:33N 50°38' W 005°31'1514.9
2015-Jun-24 03:33N 50°48' W 005°13'8714.3
2015-Jun-23 21:27N 51°23' W 003°05'1214.0
2015-Jun-23 20:33N 51°29' W 002°48'3 3.2
2015-Jun-23 19:32N 51°30' W 002°43'0 0.0
2015-Jun-23 19:05N 51°30' W 002°43'0 0.0
2015-Jun-22 19:32N 51°30' W 002°43'0 0.0
2015-Jun-22 18:32N 51°30' W 002°43'0 0.0
2015-Jun-22 17:32N 51°30' W 002°43'0 0.0
2015-Jun-22 16:32N 51°30' W 002°43'0 0.0
2015-Jun-22 15:32N 51°30' W 002°43'0 0.0
2015-Jun-22 14:32N 51°30' W 002°43'0 0.0
2015-Jun-22 13:33N 51°30' W 002°43'0 0.0
2015-Jun-22 12:29N 51°30' W 002°43'0 0.0
2015-Jun-22 11:32N 51°30' W 002°43'0 0.4
2015-Jun-22 10:33N 51°30' W 002°43'2 2.2
2015-Jun-22 09:33N 51°30' W 002°47'111 8.5
2015-Jun-21 20:33N 50°45' W 005°29'2115.5
2015-Jun-21 19:13N 50°28' W 005°47'9410.5
2015-Jun-21 10:12N 49°58' W 003°27'913.4
2015-Jun-21 09:33N 49°58' W 003°14'12815.8
2015-Jun-21 01:27N 50°30' W 000°00'1213.6
2015-Jun-21 00:33N 50°33' E 000°18'1312.8
2015-Jun-20 23:33N 50°38' E 000°37'1313.5
2015-Jun-20 22:34N 50°45' E 000°55'1515.3
2015-Jun-20 21:34N 50°55' E 001°13'1716.7
2015-Jun-20 20:34N 51°07' E 001°32'1615.5
2015-Jun-20 19:34N 51°17' E 001°50'1212.1
2015-Jun-20 18:33N 51°23' E 002°08'1513.5
2015-Jun-20 17:27N 51°23' E 002°31'1213.3
2015-Jun-20 16:33N 51°22' E 002°51'1313.5
2015-Jun-20 15:34N 51°21' E 003°12'3 2.9
2015-Jun-20 14:31N 51°19' E 003°14'0 0.0
2015-Jun-20 13:31N 51°19' E 003°14'0 0.0
2015-Jun-20 12:31N 51°19' E 003°14'0 0.0
2015-Jun-20 11:31N 51°19' E 003°14'0 0.0
2015-Jun-20 10:31N 51°19' E 003°14'0 0.0
2015-Jun-20 09:31N 51°19' E 003°14'  

Dump ship's entire track history